Terminal Aerodrome Forecast
Issued by NWS Buffalo, NY

Home | Current Version | Previous Version | Text Only | Print | Product List | Glossary On
Versions: 1 2 3 4 5 6 7 8 9 10 11 12 13 14 15 16 17 18 19 20 21 22 23 24 25 26 27 28
000
FTUS41 KBUF 161100
TAFROC
TAF
KROC 161120Z 1612/1712 30008KT P6SM BKN035
     FM161500 31011KT P6SM FEW050 FEW250
     FM162000 35009KT P6SM FEW050 FEW250
     FM162300 03005KT P6SM FEW250
     FM170100 VRB03KT P6SM FEW250
     FM170400 12005KT P6SM SCT250=

USA.gov is the U.S. government's official web portal to all federal, state and local government web resources and services.